Terminal Aerodrome Forecast
Issued by NWS Sterling, VA

Current Version | Previous Version | Graphics & Text | Print | Product List | Glossary On
Versions: 1 2 3 4 5 6 7 8 9 10 11 12 13 14 15 16 17 18 19 20 21 22 23 24
789
FTUS41 KLWX 110520
TAFDCA
TAF
KDCA 110520Z 1106/1206 29012G20KT P6SM FEW100
     FM111600 29015G25KT P6SM FEW050
     FM120200 30011KT P6SM FEW250=

USA.gov is the U.S. government's official web portal to all federal, state and local government web resources and services.